createdAt,value
2022-12-01T00:00:19.544Z,0
2022-12-01T00:01:19.560Z,0
2022-12-01T00:02:19.639Z,0
2022-12-01T00:03:19.739Z,0
2022-12-01T00:04:19.569Z,0
2022-12-01T00:05:19.553Z,0
2022-12-01T00:06:19.570Z,0
2022-12-01T00:07:19.653Z,0
2022-12-01T00:08:19.586Z,0
2022-12-01T00:09:20.323Z,0
2022-12-01T00:10:19.570Z,0
2022-12-01T00:11:19.578Z,0
2022-12-01T00:12:19.592Z,0
2022-12-01T00:13:19.574Z,0
2022-12-01T00:14:19.575Z,0
2022-12-01T00:15:19.592Z,0
2022-12-01T00:16:19.595Z,0
2022-12-01T00:17:19.588Z,0
2022-12-01T00:18:19.604Z,0
2022-12-01T00:19:19.614Z,0
2022-12-01T00:20:19.588Z,0
2022-12-01T00:21:19.620Z,0
2022-12-01T00:22:19.588Z,0
2022-12-01T00:23:19.604Z,0
2022-12-01T00:24:19.585Z,0
2022-12-01T00:25:19.614Z,0
2022-12-01T00:26:19.606Z,0
2022-12-01T00:27:19.598Z,0
2022-12-01T00:28:19.605Z,0
2022-12-01T00:29:19.591Z,0
2022-12-01T00:30:19.591Z,0
2022-12-01T00:31:19.641Z,0
2022-12-01T00:32:19.601Z,0
2022-12-01T00:33:19.611Z,0
2022-12-01T00:34:19.594Z,0
2022-12-01T00:35:19.632Z,0
2022-12-01T00:36:19.607Z,0
2022-12-01T00:37:19.616Z,0
2022-12-01T00:38:19.640Z,0
2022-12-01T00:39:19.612Z,0
2022-12-01T00:40:19.618Z,0
2022-12-01T00:41:19.621Z,0
2022-12-01T00:42:19.624Z,0
2022-12-01T00:43:19.635Z,0
2022-12-01T00:44:19.618Z,0
2022-12-01T00:45:19.617Z,0
2022-12-01T00:46:19.638Z,0
2022-12-01T00:47:19.631Z,0
2022-12-01T00:48:19.626Z,0
2022-12-01T00:49:19.640Z,0
2022-12-01T00:50:19.631Z,0
2022-12-01T00:51:19.657Z,0
2022-12-01T00:52:19.626Z,0
2022-12-01T00:53:19.650Z,0
2022-12-01T00:54:19.633Z,0
2022-12-01T00:55:19.646Z,0
2022-12-01T00:56:19.630Z,0
2022-12-01T00:57:19.640Z,0
2022-12-01T00:58:19.634Z,0
2022-12-01T00:59:19.640Z,0
2022-12-01T01:00:19.652Z,0
2022-12-01T01:01:19.750Z,0
2022-12-01T01:02:19.695Z,0
2022-12-01T01:03:19.652Z,0
2022-12-01T01:04:19.647Z,0
2022-12-01T01:05:19.651Z,0
2022-12-01T01:06:19.635Z,0
2022-12-01T01:07:19.762Z,0
2022-12-01T01:08:19.636Z,0
2022-12-01T01:09:19.645Z,0
2022-12-01T01:10:19.642Z,0
2022-12-01T01:11:19.645Z,0
2022-12-01T01:12:19.644Z,0
2022-12-01T01:13:19.651Z,0
2022-12-01T01:14:19.650Z,0
2022-12-01T01:15:19.647Z,0
2022-12-01T01:16:19.689Z,0
2022-12-01T01:17:19.645Z,0
2022-12-01T01:18:19.650Z,0
2022-12-01T01:19:19.646Z,0
2022-12-01T01:20:19.653Z,0
2022-12-01T01:21:19.650Z,0
2022-12-01T01:22:19.683Z,0
2022-12-01T01:23:19.686Z,0
2022-12-01T01:24:19.692Z,0
2022-12-01T01:25:19.659Z,0
2022-12-01T01:26:19.667Z,0
2022-12-01T01:27:19.672Z,0
2022-12-01T01:28:19.667Z,0
2022-12-01T01:29:19.672Z,0
2022-12-01T01:30:19.678Z,0
2022-12-01T01:31:19.709Z,0
2022-12-01T01:32:19.691Z,0
2022-12-01T01:33:19.680Z,0
2022-12-01T01:34:19.676Z,0
2022-12-01T01:35:19.674Z,0
2022-12-01T01:36:19.686Z,0
2022-12-01T01:37:19.680Z,0
2022-12-01T01:38:19.680Z,0
2022-12-01T01:39:19.704Z,0
2022-12-01T01:40:19.682Z,0
2022-12-01T01:41:19.687Z,0
2022-12-01T01:42:19.696Z,0
2022-12-01T01:43:19.686Z,0
2022-12-01T01:44:19.696Z,0
2022-12-01T01:45:19.687Z,0
2022-12-01T01:46:19.745Z,0
2022-12-01T01:47:19.694Z,0
2022-12-01T01:48:19.701Z,0
2022-12-01T01:49:19.693Z,0
2022-12-01T01:50:19.703Z,0
2022-12-01T01:51:19.705Z,0
2022-12-01T01:52:19.712Z,0
2022-12-01T01:53:19.710Z,0
2022-12-01T01:54:19.702Z,0
2022-12-01T01:55:19.737Z,0
2022-12-01T01:56:19.707Z,0
2022-12-01T01:57:19.706Z,0
2022-12-01T01:58:19.720Z,0
2022-12-01T01:59:19.718Z,0
2022-12-01T02:00:19.719Z,0
2022-12-01T02:01:19.752Z,0
2022-12-01T02:02:19.738Z,0
2022-12-01T02:03:19.713Z,0
2022-12-01T02:04:19.727Z,0
2022-12-01T02:05:19.726Z,0
2022-12-01T02:06:19.729Z,0
2022-12-01T02:07:19.865Z,0
2022-12-01T02:08:19.727Z,0
2022-12-01T02:09:19.729Z,0
2022-12-01T02:10:19.729Z,0
2022-12-01T02:11:19.760Z,0
2022-12-01T02:12:19.734Z,0
2022-12-01T02:13:19.733Z,0
2022-12-01T02:14:19.737Z,0
2022-12-01T02:15:19.753Z,0
2022-12-01T02:16:19.779Z,0
2022-12-01T02:17:19.743Z,0
2022-12-01T02:18:19.748Z,0
2022-12-01T02:19:19.743Z,0
2022-12-01T02:20:19.741Z,0
2022-12-01T02:21:19.748Z,0
2022-12-01T02:22:19.749Z,0
2022-12-01T02:23:19.743Z,0
2022-12-01T02:24:19.740Z,0
2022-12-01T02:25:19.750Z,0
2022-12-01T02:26:19.750Z,0
2022-12-01T02:27:19.772Z,0
2022-12-01T02:28:19.748Z,0
2022-12-01T02:29:19.745Z,0
2022-12-01T02:30:19.745Z,0
2022-12-01T02:31:19.788Z,0
2022-12-01T02:32:19.754Z,0
2022-12-01T02:33:19.749Z,0
2022-12-01T02:34:19.762Z,0
2022-12-01T02:35:19.768Z,0
2022-12-01T02:36:19.775Z,0
2022-12-01T02:37:19.765Z,0
2022-12-01T02:38:19.763Z,0
2022-12-01T02:39:19.771Z,0
2022-12-01T02:40:19.770Z,0
2022-12-01T02:41:19.775Z,0
2022-12-01T02:42:19.776Z,0
2022-12-01T02:43:19.799Z,0
2022-12-01T02:44:19.777Z,0
2022-12-01T02:45:19.781Z,0
2022-12-01T02:46:19.835Z,0
2022-12-01T02:47:19.788Z,0
2022-12-01T02:48:19.790Z,0
2022-12-01T02:49:19.790Z,0
2022-12-01T02:50:19.797Z,0
2022-12-01T02:51:19.787Z,0
2022-12-01T02:52:19.795Z,0
2022-12-01T02:53:19.795Z,0
2022-12-01T02:54:19.788Z,0
2022-12-01T02:55:19.797Z,0
2022-12-01T02:56:19.793Z,0
2022-12-01T02:57:19.790Z,0
2022-12-01T02:58:19.801Z,0
2022-12-01T02:59:19.821Z,0
2022-12-01T03:00:19.784Z,0
2022-12-01T03:01:19.831Z,0
2022-12-01T03:02:19.862Z,0
2022-12-01T03:03:19.795Z,0
2022-12-01T03:04:19.792Z,0
2022-12-01T03:05:19.802Z,0
2022-12-01T03:06:19.809Z,0
2022-12-01T03:07:19.872Z,0
2022-12-01T03:08:19.811Z,0
2022-12-01T03:09:19.808Z,0
2022-12-01T03:10:19.804Z,0
2022-12-01T03:11:19.811Z,0
2022-12-01T03:12:19.807Z,0
2022-12-01T03:13:19.803Z,0
2022-12-01T03:14:19.810Z,0
2022-12-01T03:15:19.835Z,0
2022-12-01T03:16:19.905Z,0
2022-12-01T03:17:19.812Z,0
2022-12-01T03:18:19.823Z,0
2022-12-01T03:19:19.816Z,0
2022-12-01T03:20:19.815Z,0
2022-12-01T03:21:19.818Z,0
2022-12-01T03:22:19.822Z,0
2022-12-01T03:23:19.821Z,0
2022-12-01T03:24:19.822Z,0
2022-12-01T03:25:19.820Z,0
2022-12-01T03:26:19.823Z,0
2022-12-01T03:27:19.825Z,0
2022-12-01T03:28:21.478Z,0
2022-12-01T03:29:19.831Z,0
2022-12-01T03:30:19.828Z,0
2022-12-01T03:31:19.937Z,0
2022-12-01T03:32:19.835Z,0
2022-12-01T03:33:19.820Z,0
2022-12-01T03:34:19.827Z,0
2022-12-01T03:35:19.843Z,0
2022-12-01T03:36:19.826Z,0
2022-12-01T03:37:19.826Z,0
2022-12-01T03:38:19.831Z,0
2022-12-01T03:39:19.841Z,0
2022-12-01T03:40:19.845Z,0
2022-12-01T03:41:19.834Z,0
2022-12-01T03:42:19.834Z,0
2022-12-01T03:43:19.835Z,0
2022-12-01T03:44:19.836Z,0
2022-12-01T03:45:19.842Z,0
2022-12-01T03:46:19.939Z,0
2022-12-01T03:47:19.859Z,0
2022-12-01T03:48:19.839Z,0
2022-12-01T03:49:19.840Z,0
2022-12-01T03:50:19.844Z,0
2022-12-01T03:51:19.843Z,0
2022-12-01T03:52:19.841Z,0
2022-12-01T03:53:19.846Z,0
2022-12-01T03:54:19.852Z,0
2022-12-01T03:55:19.856Z,0
2022-12-01T03:56:19.850Z,0
2022-12-01T03:57:19.852Z,0
2022-12-01T03:58:19.859Z,0
2022-12-01T03:59:19.853Z,0
2022-12-01T04:00:19.852Z,0
2022-12-01T04:01:19.911Z,0
2022-12-01T04:02:19.858Z,0
2022-12-01T04:03:19.938Z,0
2022-12-01T04:04:19.856Z,0
2022-12-01T04:05:23.942Z,0
2022-12-01T04:06:19.853Z,0
2022-12-01T04:07:19.929Z,0
2022-12-01T04:08:19.853Z,0
2022-12-01T04:09:19.867Z,0
2022-12-01T04:10:19.858Z,0
2022-12-01T04:11:19.849Z,0
2022-12-01T04:12:19.857Z,0
2022-12-01T04:13:19.864Z,0
2022-12-01T04:14:19.863Z,0
2022-12-01T04:15:19.865Z,0
2022-12-01T04:16:19.896Z,0
2022-12-01T04:17:19.860Z,0
2022-12-01T04:18:19.863Z,0
2022-12-01T04:19:19.887Z,0
2022-12-01T04:20:19.865Z,0
2022-12-01T04:21:19.868Z,0
2022-12-01T04:22:19.874Z,0
2022-12-01T04:23:19.867Z,0
2022-12-01T04:24:19.869Z,0
2022-12-01T04:25:19.866Z,0
2022-12-01T04:26:19.873Z,0
2022-12-01T04:27:19.869Z,0
2022-12-01T04:28:19.875Z,0
2022-12-01T04:29:19.872Z,0
2022-12-01T04:30:19.873Z,0
2022-12-01T04:31:19.927Z,0
2022-12-01T04:32:19.865Z,0
2022-12-01T04:33:19.869Z,0
2022-12-01T04:34:19.874Z,0
2022-12-01T04:35:19.899Z,0
2022-12-01T04:36:19.878Z,0
2022-12-01T04:37:19.877Z,0
2022-12-01T04:38:19.877Z,0
2022-12-01T04:39:19.873Z,0
2022-12-01T04:40:19.888Z,0
2022-12-01T04:41:19.873Z,0
2022-12-01T04:42:19.872Z,0
2022-12-01T04:43:19.864Z,0
2022-12-01T04:44:19.874Z,0
2022-12-01T04:45:19.875Z,0
2022-12-01T04:46:19.913Z,0
2022-12-01T04:47:19.881Z,0
2022-12-01T04:48:19.879Z,0
2022-12-01T04:49:19.881Z,0
2022-12-01T04:50:19.884Z,0
2022-12-01T04:51:19.923Z,0
2022-12-01T04:52:19.887Z,0
2022-12-01T04:53:19.886Z,0
2022-12-01T04:54:19.898Z,0
2022-12-01T04:55:19.885Z,0
2022-12-01T04:56:19.885Z,0
2022-12-01T04:57:19.899Z,0
2022-12-01T04:58:19.890Z,0
2022-12-01T04:59:19.887Z,0
2022-12-01T05:00:19.892Z,0
2022-12-01T05:01:19.963Z,0
2022-12-01T05:02:19.942Z,0
2022-12-01T05:03:19.905Z,0
2022-12-01T05:04:19.899Z,0
2022-12-01T05:05:19.903Z,0
2022-12-01T05:06:19.896Z,0
2022-12-01T05:07:20.001Z,0
2022-12-01T05:08:19.895Z,0
2022-12-01T05:09:19.902Z,0
2022-12-01T05:10:19.906Z,0
2022-12-01T05:11:19.904Z,0
2022-12-01T05:12:19.904Z,0
2022-12-01T05:13:19.930Z,0
2022-12-01T05:14:19.912Z,0
2022-12-01T05:15:19.912Z,0
2022-12-01T05:16:19.998Z,0
2022-12-01T05:17:19.916Z,0
2022-12-01T05:18:19.956Z,0
2022-12-01T05:19:19.912Z,0
2022-12-01T05:20:19.921Z,0
2022-12-01T05:21:19.919Z,0
2022-12-01T05:22:31.407Z,0
2022-12-01T05:23:19.934Z,0
2022-12-01T05:24:19.916Z,0
2022-12-01T05:25:19.921Z,0
2022-12-01T05:26:19.921Z,0
2022-12-01T05:27:19.915Z,0
2022-12-01T05:28:19.921Z,0
2022-12-01T05:29:19.923Z,0
2022-12-01T05:30:23.090Z,0
2022-12-01T05:31:20.010Z,0
2022-12-01T05:32:19.925Z,0
2022-12-01T05:33:19.928Z,0
2022-12-01T05:34:19.925Z,0
2022-12-01T05:35:19.922Z,0
2022-12-01T05:36:19.933Z,0
2022-12-01T05:37:19.932Z,0
2022-12-01T05:38:19.934Z,0
2022-12-01T05:39:19.953Z,0
2022-12-01T05:40:19.936Z,0
2022-12-01T05:41:19.935Z,0
2022-12-01T05:42:19.941Z,0
2022-12-01T05:43:22.716Z,0
2022-12-01T05:44:19.935Z,0
2022-12-01T05:45:19.942Z,0
2022-12-01T05:46:20.009Z,0
2022-12-01T05:47:19.944Z,0
2022-12-01T05:48:19.949Z,0
2022-12-01T05:49:19.943Z,0
2022-12-01T05:50:19.950Z,0
2022-12-01T05:51:19.951Z,0
2022-12-01T05:52:19.955Z,0
2022-12-01T05:53:19.959Z,0
2022-12-01T05:54:19.956Z,0
2022-12-01T05:55:19.970Z,0
2022-12-01T05:56:19.951Z,0
2022-12-01T05:57:19.958Z,0
2022-12-01T05:58:19.958Z,0
2022-12-01T05:59:19.959Z,0
2022-12-01T06:00:19.958Z,0
2022-12-01T06:01:19.956Z,0
2022-12-01T06:02:20.023Z,0
2022-12-01T06:03:19.971Z,0
2022-12-01T06:04:20.032Z,0
2022-12-01T06:05:19.971Z,0
2022-12-01T06:06:19.968Z,0
2022-12-01T06:07:19.990Z,0
2022-12-01T06:08:19.972Z,0
2022-12-01T06:09:19.972Z,0
2022-12-01T06:10:19.971Z,0
2022-12-01T06:11:19.991Z,0
2022-12-01T06:12:19.987Z,0
2022-12-01T06:13:19.972Z,0
2022-12-01T06:14:19.984Z,0
2022-12-01T06:15:19.978Z,0
2022-12-01T06:16:20.052Z,0
2022-12-01T06:17:19.972Z,0
2022-12-01T06:18:19.979Z,0
2022-12-01T06:19:19.980Z,0
2022-12-01T06:20:19.985Z,0
2022-12-01T06:21:19.979Z,0
2022-12-01T06:22:19.990Z,0
2022-12-01T06:23:19.985Z,0
2022-12-01T06:24:19.982Z,0
2022-12-01T06:25:19.985Z,0
2022-12-01T06:26:19.984Z,0
2022-12-01T06:27:20.012Z,0
2022-12-01T06:28:19.998Z,0
2022-12-01T06:29:19.986Z,0
2022-12-01T06:30:19.994Z,0
2022-12-01T06:31:20.049Z,0
2022-12-01T06:32:19.995Z,0
2022-12-01T06:33:20.021Z,0
2022-12-01T06:34:20.009Z,0
2022-12-01T06:35:19.998Z,0
2022-12-01T06:36:20.002Z,0
2022-12-01T06:37:20.000Z,0
2022-12-01T06:38:20.002Z,0
2022-12-01T06:39:20.003Z,0
2022-12-01T06:40:20.012Z,0
2022-12-01T06:41:20.002Z,0
2022-12-01T06:42:20.012Z,0
2022-12-01T06:43:20.036Z,0
2022-12-01T06:44:20.023Z,0
2022-12-01T06:45:20.020Z,0
2022-12-01T06:46:20.067Z,0
2022-12-01T06:47:20.012Z,0
2022-12-01T06:48:20.026Z,0
2022-12-01T06:49:20.019Z,0
2022-12-01T06:50:20.022Z,0
2022-12-01T06:51:20.031Z,0
2022-12-01T06:52:20.009Z,0
2022-12-01T06:53:20.029Z,0
2022-12-01T06:54:20.027Z,0
2022-12-01T06:55:20.038Z,0
2022-12-01T06:56:20.026Z,0
2022-12-01T06:57:20.023Z,0
2022-12-01T06:58:20.024Z,0
2022-12-01T06:59:20.054Z,0
2022-12-01T07:00:20.029Z,0
2022-12-01T07:01:20.111Z,0
2022-12-01T07:02:20.072Z,0
2022-12-01T07:03:20.044Z,0
2022-12-01T07:04:20.035Z,0
2022-12-01T07:05:20.033Z,0
2022-12-01T07:06:20.042Z,0
2022-12-01T07:07:20.088Z,0
2022-12-01T07:08:20.040Z,0
2022-12-01T07:09:20.045Z,0
2022-12-01T07:10:20.054Z,0
2022-12-01T07:11:20.046Z,0
2022-12-01T07:12:20.046Z,0
2022-12-01T07:13:20.039Z,0
2022-12-01T07:14:20.048Z,0
2022-12-01T07:15:20.081Z,0
2022-12-01T07:16:20.143Z,0
2022-12-01T07:17:20.052Z,0
2022-12-01T07:18:20.053Z,0
2022-12-01T07:19:20.052Z,0
2022-12-01T07:20:20.058Z,0
2022-12-01T07:21:20.063Z,0
2022-12-01T07:22:20.055Z,0
2022-12-01T07:23:20.057Z,0
2022-12-01T07:24:20.054Z,0
2022-12-01T07:25:20.056Z,0
2022-12-01T07:26:20.062Z,0
2022-12-01T07:27:20.064Z,0
2022-12-01T07:28:20.067Z,0
2022-12-01T07:29:20.064Z,0
2022-12-01T07:30:23.068Z,0
2022-12-01T07:31:20.147Z,0
2022-12-01T07:32:20.062Z,0
2022-12-01T07:33:20.052Z,0
2022-12-01T07:34:20.063Z,0
2022-12-01T07:35:20.062Z,0
2022-12-01T07:36:20.063Z,0
2022-12-01T07:37:20.067Z,0
2022-12-01T07:38:22.175Z,0
2022-12-01T07:39:20.067Z,0
2022-12-01T07:40:20.072Z,0
2022-12-01T07:41:20.070Z,0
2022-12-01T07:42:20.077Z,0
2022-12-01T07:43:20.070Z,0
2022-12-01T07:44:20.071Z,0
2022-12-01T07:45:20.075Z,0
2022-12-01T07:46:23.035Z,0
2022-12-01T07:47:20.104Z,0
2022-12-01T07:48:20.086Z,0
2022-12-01T07:49:20.075Z,0
2022-12-01T07:50:20.080Z,0
2022-12-01T07:51:20.078Z,0
2022-12-01T07:52:20.082Z,0
2022-12-01T07:53:20.073Z,0
2022-12-01T07:54:20.096Z,0
2022-12-01T07:55:20.080Z,0
2022-12-01T07:56:20.090Z,0
2022-12-01T07:57:20.088Z,0
2022-12-01T07:58:20.093Z,0
2022-12-01T07:59:20.088Z,0
2022-12-01T08:00:20.092Z,0
2022-12-01T08:01:20.124Z,0
2022-12-01T08:02:20.182Z,0
2022-12-01T08:03:20.140Z,0
2022-12-01T08:04:20.094Z,0
2022-12-01T08:05:20.087Z,0
2022-12-01T08:06:20.091Z,0
2022-12-01T08:07:20.183Z,0
2022-12-01T08:08:20.138Z,0
2022-12-01T08:09:20.098Z,0
2022-12-01T08:10:20.100Z,0
2022-12-01T08:11:20.098Z,0
2022-12-01T08:12:20.096Z,0
2022-12-01T08:13:20.101Z,0
2022-12-01T08:14:20.106Z,0
2022-12-01T08:15:20.102Z,0
2022-12-01T08:16:20.102Z,0
2022-12-01T08:17:20.099Z,0
2022-12-01T08:18:20.106Z,0
2022-12-01T08:19:20.129Z,0
2022-12-01T08:20:23.817Z,0
2022-12-01T08:21:20.099Z,0
2022-12-01T08:22:20.116Z,0
2022-12-01T08:23:20.110Z,0
2022-12-01T08:24:20.108Z,0
2022-12-01T08:25:20.109Z,0
2022-12-01T08:26:20.103Z,0
2022-12-01T08:27:20.119Z,0
2022-12-01T08:28:20.119Z,0
2022-12-01T08:29:20.631Z,0
2022-12-01T08:30:20.112Z,0
2022-12-01T08:31:20.173Z,0
2022-12-01T08:32:20.111Z,0
2022-12-01T08:33:20.118Z,0
2022-12-01T08:34:20.116Z,0
2022-12-01T08:35:20.145Z,0
2022-12-01T08:36:20.112Z,0
2022-12-01T08:37:20.119Z,0
2022-12-01T08:38:20.125Z,0
2022-12-01T08:39:20.122Z,0
2022-12-01T08:40:20.123Z,0
2022-12-01T08:41:20.121Z,0
2022-12-01T08:42:20.124Z,0
2022-12-01T08:43:41.768Z,0
2022-12-01T08:44:20.231Z,0
2022-12-01T08:45:20.132Z,0
2022-12-01T08:46:20.170Z,0
2022-12-01T08:47:20.126Z,0
2022-12-01T08:48:20.128Z,0
2022-12-01T08:49:20.128Z,0
2022-12-01T08:50:20.153Z,0
2022-12-01T08:51:20.154Z,0
2022-12-01T08:52:20.120Z,0
2022-12-01T08:53:20.117Z,0
2022-12-01T08:54:20.131Z,0
2022-12-01T08:55:20.132Z,0
2022-12-01T08:56:20.125Z,0
2022-12-01T08:57:20.132Z,0
2022-12-01T08:58:20.125Z,0
2022-12-01T08:59:20.130Z,0
2022-12-01T09:00:20.136Z,0
2022-12-01T09:01:20.239Z,0
2022-12-01T09:02:20.156Z,0
2022-12-01T09:03:20.179Z,0
2022-12-01T09:04:20.126Z,0
2022-12-01T09:05:20.138Z,0
2022-12-01T09:06:20.141Z,0
2022-12-01T09:07:24.558Z,0
2022-12-01T09:08:20.143Z,0
2022-12-01T09:09:20.139Z,0
2022-12-01T09:10:20.136Z,0
2022-12-01T09:11:20.137Z,0
2022-12-01T09:12:20.141Z,0
2022-12-01T09:13:20.139Z,0
2022-12-01T09:14:20.130Z,0
2022-12-01T09:15:20.142Z,0
2022-12-01T09:16:20.168Z,0
2022-12-01T09:17:20.136Z,0
2022-12-01T09:18:20.127Z,0
2022-12-01T09:19:24.482Z,0
2022-12-01T09:20:20.137Z,0
2022-12-01T09:21:20.143Z,0
2022-12-01T09:22:20.140Z,0
2022-12-01T09:23:20.166Z,0
2022-12-01T09:24:20.139Z,0
2022-12-01T09:25:20.137Z,0
2022-12-01T09:26:20.143Z,0
2022-12-01T09:27:20.145Z,0
2022-12-01T09:28:20.145Z,0
2022-12-01T09:29:20.139Z,0
2022-12-01T09:30:20.136Z,0
2022-12-01T09:31:20.169Z,0
2022-12-01T09:32:20.148Z,0
2022-12-01T09:33:20.141Z,0
2022-12-01T09:34:20.139Z,0
2022-12-01T09:35:23.325Z,0
2022-12-01T09:36:20.146Z,0
2022-12-01T09:37:20.143Z,0
2022-12-01T09:38:20.146Z,0
2022-12-01T09:39:20.177Z,0
2022-12-01T09:40:20.143Z,0
2022-12-01T09:41:20.155Z,0
2022-12-01T09:42:20.149Z,0
2022-12-01T09:43:20.143Z,0
2022-12-01T09:44:20.153Z,0
2022-12-01T09:45:20.149Z,0
2022-12-01T09:46:20.186Z,0
2022-12-01T09:47:20.161Z,0
2022-12-01T09:48:20.160Z,0
2022-12-01T09:49:20.162Z,0
2022-12-01T09:50:20.235Z,0
2022-12-01T09:51:20.158Z,0
2022-12-01T09:52:20.155Z,0
2022-12-01T09:53:20.163Z,0
2022-12-01T09:54:20.169Z,0
2022-12-01T09:55:20.193Z,0
2022-12-01T09:56:20.158Z,0
2022-12-01T09:57:20.162Z,0
2022-12-01T09:58:20.330Z,0
2022-12-01T09:59:20.161Z,0
2022-12-01T10:00:20.225Z,0
2022-12-01T10:01:24.513Z,0
2022-12-01T10:02:20.188Z,0
2022-12-01T10:03:20.163Z,0
2022-12-01T10:04:20.184Z,0
2022-12-01T10:05:20.246Z,0
2022-12-01T10:06:28.626Z,0
2022-12-01T10:07:20.243Z,0
2022-12-01T10:08:23.850Z,0
2022-12-01T10:09:20.185Z,0
2022-12-01T10:10:20.176Z,0
2022-12-01T10:11:20.194Z,0
2022-12-01T10:12:20.201Z,0
2022-12-01T10:13:20.173Z,0
2022-12-01T10:14:20.816Z,0
2022-12-01T10:15:20.181Z,0
2022-12-01T10:16:20.233Z,0
2022-12-01T10:17:20.176Z,0
2022-12-01T10:18:20.188Z,0
2022-12-01T10:19:20.184Z,0
2022-12-01T10:20:20.180Z,0
2022-12-01T10:21:20.192Z,0
2022-12-01T10:22:20.180Z,0
2022-12-01T10:23:20.184Z,0
2022-12-01T10:24:20.196Z,0
2022-12-01T10:25:20.193Z,0
2022-12-01T10:26:20.189Z,0
2022-12-01T10:27:20.249Z,0
2022-12-01T10:28:20.190Z,0
2022-12-01T10:29:20.194Z,0
2022-12-01T10:30:20.198Z,0
2022-12-01T10:31:20.232Z,0
2022-12-01T10:32:20.196Z,0
2022-12-01T10:33:20.199Z,0
2022-12-01T10:34:20.199Z,0
2022-12-01T10:35:20.191Z,0
2022-12-01T10:36:20.197Z,0
2022-12-01T10:37:20.240Z,0
2022-12-01T10:38:20.197Z,0
2022-12-01T10:39:20.198Z,0
2022-12-01T10:40:20.201Z,0
2022-12-01T10:41:20.192Z,0
2022-12-01T10:42:20.208Z,0
2022-12-01T10:43:20.237Z,0
2022-12-01T10:44:20.207Z,0
2022-12-01T10:45:20.204Z,0
2022-12-01T10:46:20.252Z,0
2022-12-01T10:47:20.210Z,0
2022-12-01T10:48:20.213Z,0
2022-12-01T10:49:20.209Z,0
2022-12-01T10:50:20.215Z,0
2022-12-01T10:51:20.213Z,0
2022-12-01T10:52:20.209Z,0
2022-12-01T10:53:20.215Z,0
2022-12-01T10:54:20.209Z,0
2022-12-01T10:55:20.207Z,0
2022-12-01T10:56:20.223Z,0
2022-12-01T10:57:20.218Z,0
2022-12-01T10:58:20.213Z,0
2022-12-01T10:59:20.239Z,0
2022-12-01T11:00:43.176Z,0
2022-12-01T11:01:20.287Z,0
2022-12-01T11:02:20.433Z,0
2022-12-01T11:03:21.900Z,0
2022-12-01T11:04:20.216Z,0
2022-12-01T11:05:20.217Z,0
2022-12-01T11:06:20.212Z,0
2022-12-01T11:07:20.337Z,0
2022-12-01T11:08:20.219Z,0
2022-12-01T11:09:24.489Z,0
2022-12-01T11:10:20.232Z,0
2022-12-01T11:11:20.224Z,0
2022-12-01T11:12:20.222Z,0
2022-12-01T11:13:20.224Z,0
2022-12-01T11:14:20.224Z,0
2022-12-01T11:15:20.245Z,0
2022-12-01T11:16:20.289Z,0
2022-12-01T11:17:20.218Z,0
2022-12-01T11:18:20.220Z,0
2022-12-01T11:19:25.264Z,0
2022-12-01T11:20:20.399Z,0
2022-12-01T11:21:20.226Z,0
2022-12-01T11:22:20.212Z,0
2022-12-01T11:23:20.220Z,0
2022-12-01T11:24:20.227Z,0
2022-12-01T11:25:20.221Z,0
2022-12-01T11:26:20.245Z,0
2022-12-01T11:27:20.218Z,0
2022-12-01T11:28:20.231Z,0
2022-12-01T11:29:20.230Z,0
2022-12-01T11:30:20.386Z,0
2022-12-01T11:31:20.306Z,0
2022-12-01T11:32:20.236Z,0
2022-12-01T11:33:20.257Z,0
2022-12-01T11:34:20.234Z,0
2022-12-01T11:35:20.233Z,0
2022-12-01T11:36:20.231Z,0
2022-12-01T11:37:20.238Z,0
2022-12-01T11:38:35.647Z,0
2022-12-01T11:39:20.233Z,0
2022-12-01T11:40:20.333Z,0
2022-12-01T11:41:20.222Z,0
2022-12-01T11:42:20.236Z,0
2022-12-01T11:43:20.236Z,0
2022-12-01T11:44:43.489Z,0
2022-12-01T11:45:20.240Z,0
2022-12-01T11:46:20.269Z,0
2022-12-01T11:47:24.524Z,0
2022-12-01T11:48:20.240Z,0
2022-12-01T11:49:20.233Z,0
2022-12-01T11:50:20.231Z,0
2022-12-01T11:51:20.240Z,0
2022-12-01T11:52:20.230Z,0
2022-12-01T11:53:20.237Z,0
2022-12-01T11:54:20.233Z,0
2022-12-01T11:55:20.235Z,0
2022-12-01T11:56:20.231Z,0
2022-12-01T11:57:33.508Z,0
2022-12-01T11:58:20.239Z,0
2022-12-01T11:59:20.231Z,0
2022-12-01T12:00:20.328Z,0
2022-12-01T12:01:22.051Z,0
2022-12-01T12:02:20.264Z,0
2022-12-01T12:03:20.317Z,0
2022-12-01T12:04:20.239Z,0
2022-12-01T12:05:20.234Z,0
2022-12-01T12:07:20.268Z,0
2022-12-01T12:08:20.239Z,0
2022-12-01T12:09:20.247Z,0
2022-12-01T12:10:20.247Z,0
2022-12-01T12:11:20.245Z,0
2022-12-01T12:12:20.239Z,0
2022-12-01T12:13:20.244Z,0
2022-12-01T12:14:20.253Z,0
2022-12-01T12:15:20.251Z,0
2022-12-01T12:16:20.248Z,0
2022-12-01T12:17:20.298Z,0
2022-12-01T12:18:20.253Z,0
2022-12-01T12:19:20.485Z,0
2022-12-01T12:20:20.337Z,0
2022-12-01T12:21:20.253Z,0
2022-12-01T12:22:20.257Z,0
2022-12-01T12:23:20.268Z,0
2022-12-01T12:24:20.259Z,0
2022-12-01T12:25:20.260Z,0
2022-12-01T12:26:20.272Z,0
2022-12-01T12:27:20.270Z,0
2022-12-01T12:28:20.255Z,0
2022-12-01T12:29:20.267Z,0
2022-12-01T12:30:20.267Z,0
2022-12-01T12:31:20.297Z,3.6
2022-12-01T12:32:20.262Z,3.5
2022-12-01T12:33:20.273Z,3.9000000000000004
2022-12-01T12:34:20.272Z,5.2
2022-12-01T12:35:20.294Z,0.9
2022-12-01T12:36:20.322Z,0.6000000000000001
2022-12-01T12:37:20.273Z,0
2022-12-01T12:38:20.271Z,1.5
2022-12-01T12:39:20.268Z,2.6
2022-12-01T12:40:20.275Z,4.5
2022-12-01T12:41:20.275Z,3.6
2022-12-01T12:42:20.282Z,2.5
2022-12-01T12:43:20.286Z,5.7
2022-12-01T12:44:20.289Z,2.2
2022-12-01T12:45:20.274Z,4.4
2022-12-01T12:46:20.331Z,3.9000000000000004
2022-12-01T12:47:20.282Z,1.3
2022-12-01T12:48:20.279Z,0
2022-12-01T12:49:20.986Z,5.800000000000001
2022-12-01T12:50:20.292Z,7
2022-12-01T12:51:20.317Z,4.3
2022-12-01T12:52:20.295Z,2.4000000000000004
2022-12-01T12:53:20.290Z,0
2022-12-01T12:54:20.343Z,0
2022-12-01T12:55:20.296Z,0
2022-12-01T12:56:20.300Z,0
2022-12-01T12:57:20.296Z,0
2022-12-01T12:58:20.298Z,0
2022-12-01T12:59:20.297Z,0
2022-12-01T13:00:20.296Z,0
2022-12-01T13:01:20.354Z,0
2022-12-01T13:02:20.311Z,0
2022-12-01T13:03:20.291Z,0
2022-12-01T13:04:20.301Z,0
2022-12-01T13:05:20.315Z,0
2022-12-01T13:06:20.302Z,0
2022-12-01T13:07:20.355Z,0
2022-12-01T13:08:20.301Z,0
2022-12-01T13:09:20.296Z,0
2022-12-01T13:10:20.308Z,0
2022-12-01T13:11:20.304Z,0
2022-12-01T13:12:20.305Z,0
2022-12-01T13:13:20.309Z,7
2022-12-01T13:14:20.311Z,4.1000000000000005
2022-12-01T13:15:20.312Z,3.4000000000000004
2022-12-01T13:16:20.339Z,2.3000000000000003
2022-12-01T13:17:20.314Z,0
2022-12-01T13:18:20.316Z,0
2022-12-01T13:19:20.319Z,2.3000000000000003
2022-12-01T13:20:20.326Z,2.3000000000000003
2022-12-01T13:21:20.428Z,0.8
2022-12-01T13:22:20.322Z,0
2022-12-01T13:23:20.343Z,0
2022-12-01T13:24:23.205Z,0
2022-12-01T13:25:20.319Z,0
2022-12-01T13:26:20.324Z,0
2022-12-01T13:27:20.325Z,0
2022-12-01T13:28:20.324Z,0
2022-12-01T13:29:20.322Z,0
2022-12-01T13:30:20.326Z,5.5
2022-12-01T13:31:20.380Z,4.5
2022-12-01T13:32:20.325Z,7.4
2022-12-01T13:33:20.328Z,9
2022-12-01T13:34:20.322Z,9.200000000000001
2022-12-01T13:35:20.323Z,5
2022-12-01T13:36:45.565Z,7.1000000000000005
2022-12-01T13:37:20.330Z,7.2
2022-12-01T13:38:20.345Z,6.4
2022-12-01T13:39:20.352Z,7.800000000000001
2022-12-01T13:40:20.337Z,6.300000000000001
2022-12-01T13:41:20.324Z,7.6000000000000005
2022-12-01T13:42:20.328Z,8.5
2022-12-01T13:43:20.327Z,6.1000000000000005
2022-12-01T13:44:20.423Z,8.5
2022-12-01T13:45:20.336Z,8.5
2022-12-01T13:46:20.427Z,3.1
2022-12-01T13:47:20.339Z,6.1000000000000005
2022-12-01T13:48:20.340Z,4.5
2022-12-01T13:49:20.335Z,8.9
2022-12-01T13:50:20.337Z,3.6
2022-12-01T13:51:20.332Z,5.6000000000000005
2022-12-01T13:52:20.328Z,1.9000000000000001
2022-12-01T13:53:20.336Z,3.5
2022-12-01T13:54:20.337Z,3
2022-12-01T13:55:20.366Z,4.1000000000000005
2022-12-01T13:56:20.344Z,1.9000000000000001
2022-12-01T13:57:20.336Z,2.2
2022-12-01T13:58:20.342Z,5.6000000000000005
2022-12-01T13:59:20.347Z,5
2022-12-01T14:00:20.387Z,2.4000000000000004
2022-12-01T14:01:20.640Z,4.4
2022-12-01T14:02:20.374Z,5.1000000000000005
2022-12-01T14:03:20.456Z,2.8000000000000003
2022-12-01T14:04:20.342Z,4.7
2022-12-01T14:05:20.341Z,3
2022-12-01T14:06:20.353Z,4.1000000000000005
2022-12-01T14:07:20.431Z,4.800000000000001
2022-12-01T14:08:23.176Z,4.3
2022-12-01T14:09:20.342Z,4.1000000000000005
2022-12-01T14:10:20.347Z,3
2022-12-01T14:11:20.369Z,1.3
2022-12-01T14:12:20.346Z,3.9000000000000004
2022-12-01T14:13:20.342Z,3.5
2022-12-01T14:14:25.698Z,5.5
2022-12-01T14:15:20.350Z,3.1
2022-12-01T14:16:20.394Z,4.2
2022-12-01T14:17:20.345Z,2.4000000000000004
2022-12-01T14:18:20.354Z,5.2
2022-12-01T14:19:20.351Z,4.800000000000001
2022-12-01T14:20:20.360Z,4.800000000000001
2022-12-01T14:21:20.356Z,2.8000000000000003
2022-12-01T14:22:20.356Z,2.1
2022-12-01T14:23:20.364Z,5.6000000000000005
2022-12-01T14:24:20.357Z,2.7